KMFE/MFE METAR and TAF weather

Enter ICAO airport designator
Station Type Date Time Source
KMFE METAR 2020/01/20 09:53 UTC NOAA

KMFE 200953Z AUTO 35009KT 10SM OVC080 14/00 A3048 RMK AO2 SLP321 T01390000


Station Type Date Time Source
KMFE Decoded METAR 2020/01/20 09:53 UTC NOAA

MCALLEN MILLER INTERNATIONAL AIRPORT , TX, United States (KMFE) 26-11N 98-15W 38M
Jan 20, 2020 - 04:53 AM EST / 2020.01.20 0953 UTC
Wind: from the N (350 degrees) at 10 MPH (9 KT):0
Visibility: 10 mile(s):0
Sky conditions: overcast
Temperature: 57.0 F (13.9 C)
Dew Point: 32.0 F (0.0 C)
Relative Humidity: 38%
Pressure (altimeter): 30.48 in. Hg (1032 hPa)
ob: KMFE 200953Z AUTO 35009KT 10SM OVC080 14/00 A3048 RMK AO2 SLP321 T01390000
cycle: 10

Station Type Date Time Source
KMFE TAF 2020/01/20 06:27 UTC NOAA

TAF KMFE 200525Z 2006/2106 36005KT P6SM BKN070
FM201900 04009KT P6SM FEW060 BKN250
FM210500 VRB03KT 6SM BR BKN035

Example: see airport list